Time;durP1;ratioP1;P1;durP2;ratioP2;P2;SDS_P1;SDS_P2;PMS_P1;PMS_P2;Temp;Humidity;BMP_temperature;BMP_pressure;BME280_temperature;BME280_humidity;BME280_pressure;Samples;Min_cycle;Max_cycle;Signal;HPM_P1;HPM_P2
2020/12/08 00:02:45;;;;;;;6.13;5.37;;;6.00;99.90;;;;;;10305450;28;20236;-82
2020/12/08 00:08:07;;;;;;;6.37;5.13;;;6.10;99.90;;;;;;10264242;29;20197;-82
2020/12/08 00:13:30;;;;;;;6.80;5.77;;;6.20;99.90;;;;;;10263383;28;20220;-82
2020/12/08 00:18:51;;;;;;;6.40;5.47;;;6.20;99.90;;;;;;10281521;28;20192;-82
2020/12/08 00:24:13;;;;;;;6.43;4.63;;;6.10;99.90;;;;;;10301143;28;20290;-82
2020/12/08 00:29:36;;;;;;;6.57;4.90;;;6.00;99.90;;;;;;10302506;28;20286;-82
2020/12/08 00:34:57;;;;;;;5.67;5.07;;;6.10;99.90;;;;;;10301787;28;20212;-82
2020/12/08 00:40:19;;;;;;;4.70;4.20;;;6.10;99.90;;;;;;10301927;28;20200;-82
2020/12/08 00:45:42;;;;;;;7.07;5.17;;;6.20;99.90;;;;;;10300046;28;20313;-82
2020/12/08 00:51:03;;;;;;;6.10;4.50;;;6.20;99.90;;;;;;10300306;28;20590;-82
2020/12/08 00:56:25;;;;;;;6.70;4.53;;;6.30;99.90;;;;;;10283082;28;20291;-82
2020/12/08 01:01:47;;;;;;;5.53;3.97;;;6.10;99.90;;;;;;10300713;28;20191;-82
2020/12/08 01:07:09;;;;;;;5.03;3.90;;;6.00;99.90;;;;;;10298702;28;20212;-83
2020/12/08 01:12:30;;;;;;;7.13;4.00;;;6.30;99.90;;;;;;10300934;28;20256;-81
2020/12/08 01:17:53;;;;;;;4.53;4.00;;;6.20;99.90;;;;;;10298865;28;20219;-83
2020/12/08 01:23:14;;;;;;;5.37;4.10;;;6.10;99.90;;;;;;10301291;28;20195;-82
2020/12/08 01:28:36;;;;;;;4.53;4.13;;;6.00;99.90;;;;;;10301680;28;20200;-82
2020/12/08 01:33:58;;;;;;;4.53;3.90;;;6.00;99.90;;;;;;10301281;28;20224;-82
2020/12/08 01:39:20;;;;;;;5.30;4.80;;;5.90;99.90;;;;;;10300259;28;20618;-82
2020/12/08 01:44:46;;;;;;;5.20;4.40;;;5.90;99.90;;;;;;10300660;28;20231;-81
2020/12/08 01:50:09;;;;;;;4.40;4.00;;;5.80;99.90;;;;;;10298862;28;20268;-82
2020/12/08 01:55:31;;;;;;;6.93;4.37;;;5.90;99.90;;;;;;10300708;28;20219;-82
2020/12/08 02:00:53;;;;;;;4.37;3.87;;;5.80;99.90;;;;;;10300582;28;20203;-82
2020/12/08 02:06:15;;;;;;;5.90;3.97;;;5.70;99.90;;;;;;10299493;28;20219;-82
2020/12/08 02:11:37;;;;;;;7.10;4.83;;;5.90;99.90;;;;;;10301255;28;20266;-82
2020/12/08 02:16:58;;;;;;;5.43;4.93;;;6.00;99.90;;;;;;10298381;28;20321;-82
2020/12/08 02:22:21;;;;;;;6.13;5.20;;;5.80;99.90;;;;;;10298866;28;20262;-82
2020/12/08 02:27:42;;;;;;;5.07;4.57;;;5.70;99.90;;;;;;10302194;28;20613;-81
2020/12/08 02:33:04;;;;;;;6.40;4.97;;;5.70;99.90;;;;;;10304161;28;20302;-82
2020/12/08 02:38:27;;;;;;;6.17;5.00;;;5.60;99.90;;;;;;10306121;28;20218;-82
2020/12/08 02:43:48;;;;;;;5.53;4.87;;;5.50;99.90;;;;;;10306331;28;20224;-82
2020/12/08 02:49:10;;;;;;;5.17;4.67;;;5.80;99.90;;;;;;10304591;28;20633;-82
2020/12/08 02:54:32;;;;;;;7.20;4.70;;;5.80;99.90;;;;;;10294634;28;20277;-82
2020/12/08 02:59:54;;;;;;;6.57;4.90;;;5.70;99.90;;;;;;10306237;28;20192;-82
2020/12/08 03:05:15;;;;;;;5.17;4.53;;;5.60;99.90;;;;;;10304601;28;20230;-82
2020/12/08 03:10:38;;;;;;;5.93;4.50;;;5.40;99.90;;;;;;10271943;28;20227;-82
2020/12/08 03:15:59;;;;;;;5.13;4.23;;;5.40;99.90;;;;;;10302072;28;20227;-82
2020/12/08 03:21:21;;;;;;;4.67;4.17;;;5.60;99.90;;;;;;10304681;28;20187;-83
2020/12/08 03:26:43;;;;;;;4.43;4.03;;;5.70;99.90;;;;;;10285577;28;20256;-82
2020/12/08 03:32:06;;;;;;;4.53;4.10;;;5.70;99.90;;;;;;10289780;28;20241;-82
2020/12/08 03:37:28;;;;;;;4.13;3.60;;;5.70;99.90;;;;;;10300839;28;20223;-82
2020/12/08 03:42:50;;;;;;;4.63;4.13;;;5.70;99.90;;;;;;10301405;28;20266;-82
2020/12/08 03:48:12;;;;;;;6.97;4.17;;;5.60;99.90;;;;;;10303331;28;20204;-82
2020/12/08 03:53:33;;;;;;;5.00;4.00;;;5.60;99.90;;;;;;10299766;28;20706;-82
2020/12/08 03:58:56;;;;;;;5.03;4.50;;;5.70;99.90;;;;;;10300820;28;20192;-81
2020/12/08 04:04:18;;;;;;;4.50;4.10;;;5.50;99.90;;;;;;10302329;28;20220;-82
2020/12/08 04:09:40;;;;;;;6.97;4.93;;;5.50;99.90;;;;;;10284138;28;20293;-82
2020/12/08 04:15:03;;;;;;;4.93;4.27;;;5.70;99.90;;;;;;10299469;28;20254;-81
2020/12/08 04:20:24;;;;;;;5.63;4.90;;;5.60;99.90;;;;;;10303813;28;20203;-82
2020/12/08 04:25:46;;;;;;;8.73;4.80;;;5.60;99.90;;;;;;10302358;28;20278;-82
2020/12/08 04:31:13;;;;;;;5.43;4.93;;;5.50;99.90;;;;;;10303106;28;20223;-82
2020/12/08 04:36:35;;;;;;;5.67;5.00;;;5.70;99.90;;;;;;10303137;28;20214;-82
2020/12/08 04:41:57;;;;;;;6.50;5.67;;;5.80;99.90;;;;;;10303164;28;20199;-82
2020/12/08 04:47:21;;;;;;;9.30;6.57;;;5.80;99.90;;;;;;10302377;28;20267;-82
2020/12/08 04:52:44;;;;;;;7.50;6.30;;;5.90;99.90;;;;;;10298902;28;20226;-82
2020/12/08 04:58:07;;;;;;;8.73;7.47;;;5.90;99.90;;;;;;10301137;28;20216;-82
2020/12/08 05:03:30;;;;;;;10.87;7.63;;;6.00;99.90;;;;;;10282885;28;20216;-82
2020/12/08 05:09:12;;;;;;;9.27;7.40;;;5.80;99.90;;;;;;10262235;29;20196;-82
2020/12/08 05:14:41;;;;;;;8.67;7.33;;;5.80;99.90;;;;;;10260548;28;20212;-82
2020/12/08 05:20:06;;;;;;;10.17;7.17;;;5.80;99.90;;;;;;10289117;28;20526;-82
2020/12/08 05:25:29;;;;;;;11.83;7.13;;;5.70;99.90;;;;;;10301035;28;20697;-82
2020/12/08 05:30:51;;;;;;;11.60;7.60;;;5.50;99.90;;;;;;10298845;28;20247;-82
2020/12/08 05:36:15;;;;;;;13.00;8.07;;;5.60;99.90;;;;;;10300712;28;20281;-82
2020/12/08 05:41:43;;;;;;;14.57;8.90;;;5.60;99.90;;;;;;10298156;28;20322;-82
2020/12/08 05:47:07;;;;;;;9.30;8.13;;;5.60;99.90;;;;;;10298932;28;20219;-82
2020/12/08 05:52:32;;;;;;;8.90;7.53;;;5.40;99.90;;;;;;10300566;28;20251;-82
2020/12/08 05:57:53;;;;;;;10.33;8.10;;;5.30;99.90;;;;;;10297894;28;20253;-82
2020/12/08 06:03:16;;;;;;;8.50;7.60;;;5.40;99.90;;;;;;10307107;28;20669;-83
2020/12/08 06:08:45;;;;;;;10.87;8.37;;;5.50;99.90;;;;;;10313728;28;20206;-84
2020/12/08 06:14:07;;;;;;;11.57;8.50;;;5.40;99.90;;;;;;10309784;28;20223;-82
2020/12/08 06:19:28;;;;;;;11.53;8.73;;;5.40;99.90;;;;;;10302214;28;20192;-87
2020/12/08 06:24:54;;;;;;;11.70;8.60;;;5.40;99.90;;;;;;10300193;28;20216;-83
2020/12/08 06:30:20;;;;;;;15.33;10.13;;;5.40;99.90;;;;;;10303232;28;20220;-84
2020/12/08 06:35:42;;;;;;;11.83;8.73;;;5.40;99.90;;;;;;10302991;28;20208;-86
2020/12/08 06:41:04;;;;;;;13.07;10.33;;;5.20;99.90;;;;;;10301121;28;20188;-83
2020/12/08 06:46:26;;;;;;;11.93;9.97;;;5.40;99.90;;;;;;10303292;28;20234;-87
2020/12/08 06:51:54;;;;;;;12.70;10.03;;;5.40;99.90;;;;;;10302384;28;20227;-83
2020/12/08 06:57:23;;;;;;;13.07;9.93;;;5.50;99.90;;;;;;10298174;28;20219;-83
2020/12/08 07:02:50;;;;;;;13.17;10.00;;;5.50;99.90;;;;;;10324619;28;20195;-82
2020/12/08 07:08:15;;;;;;;14.40;10.63;;;5.40;99.90;;;;;;10310199;28;20195;-83
2020/12/08 07:13:38;;;;;;;17.13;11.00;;;5.50;99.90;;;;;;10302102;28;20235;-83
2020/12/08 07:19:00;;;;;;;13.77;10.50;;;5.30;99.90;;;;;;10302384;28;20195;-83
2020/12/08 07:24:24;;;;;;;14.07;11.77;;;5.60;99.90;;;;;;10302521;28;20239;-83
2020/12/08 07:29:47;;;;;;;14.90;11.73;;;5.50;99.90;;;;;;10302733;28;20729;-83
2020/12/08 07:35:20;;;;;;;16.87;13.03;;;5.50;99.90;;;;;;10283910;28;20252;-82
2020/12/08 07:40:42;;;;;;;15.93;11.93;;;5.40;99.90;;;;;;10261430;29;20195;-82
2020/12/08 07:46:04;;;;;;;15.00;11.10;;;5.20;99.90;;;;;;10340539;28;20231;-82
2020/12/08 07:51:27;;;;;;;18.27;12.13;;;5.20;99.90;;;;;;10331304;28;20310;-82
2020/12/08 07:56:48;;;;;;;14.47;11.30;;;5.40;99.90;;;;;;10328033;28;20225;-82
2020/12/08 08:02:11;;;;;;;14.93;11.90;;;5.40;99.90;;;;;;10339995;28;20309;-82
2020/12/08 08:07:33;;;;;;;15.60;12.10;;;5.30;99.90;;;;;;10327942;28;20703;-82
2020/12/08 08:12:54;;;;;;;16.70;12.57;;;5.50;99.90;;;;;;10331640;28;20226;-82
2020/12/08 08:18:17;;;;;;;16.60;12.53;;;5.50;99.90;;;;;;10320429;28;20196;-82
2020/12/08 08:23:39;;;;;;;15.33;11.80;;;5.50;99.90;;;;;;10300083;28;20231;-82
2020/12/08 08:29:00;;;;;;;16.10;11.80;;;5.60;99.90;;;;;;10300523;28;20696;-82
2020/12/08 08:34:23;;;;;;;17.43;12.67;;;5.50;99.90;;;;;;10299830;28;20231;-82
2020/12/08 08:39:44;;;;;;;16.70;12.47;;;5.80;99.90;;;;;;10299894;28;20682;-81
2020/12/08 08:45:06;;;;;;;16.10;12.70;;;5.70;99.90;;;;;;10271255;28;20232;-81
2020/12/08 08:50:29;;;;;;;18.17;14.17;;;5.90;99.90;;;;;;10262822;28;20222;-81
2020/12/08 08:55:50;;;;;;;17.87;13.57;;;5.70;99.90;;;;;;10315479;28;20226;-82
2020/12/08 09:01:12;;;;;;;18.07;13.90;;;5.60;99.90;;;;;;10300458;28;20204;-82
2020/12/08 09:06:34;;;;;;;17.63;12.73;;;5.80;99.90;;;;;;10299200;28;20708;-82
2020/12/08 09:11:56;;;;;;;17.13;13.63;;;5.90;99.90;;;;;;10301211;28;20216;-82
2020/12/08 09:17:18;;;;;;;15.57;12.80;;;6.30;99.90;;;;;;10299581;28;20631;-82
2020/12/08 09:22:41;;;;;;;14.83;11.90;;;6.40;99.90;;;;;;10349133;23;20226;-83
2020/12/08 09:28:03;;;;;;;15.93;12.77;;;6.60;99.90;;;;;;10389446;28;20194;-83
2020/12/08 09:33:27;;;;;;;16.43;12.77;;;6.70;99.90;;;;;;10391949;23;20738;-82
2020/12/08 09:38:50;;;;;;;14.43;11.77;;;6.60;99.90;;;;;;10342040;28;20195;-79
2020/12/08 09:44:12;;;;;;;14.70;12.03;;;6.60;99.90;;;;;;10339937;28;20225;-80
2020/12/08 09:49:33;;;;;;;17.57;12.73;;;6.60;99.90;;;;;;10347955;28;20690;-80
2020/12/08 09:54:56;;;;;;;17.27;12.83;;;6.60;99.90;;;;;;10338187;28;20218;-79
2020/12/08 10:00:18;;;;;;;15.40;12.17;;;6.70;99.90;;;;;;10341514;28;20211;-79
2020/12/08 10:05:39;;;;;;;16.90;12.27;;;6.90;99.90;;;;;;10339569;28;20222;-80
2020/12/08 10:11:02;;;;;;;14.57;11.33;;;6.80;99.90;;;;;;10338945;28;20219;-78
2020/12/08 10:16:25;;;;;;;18.10;13.43;;;6.80;99.90;;;;;;10338862;28;20191;-81
2020/12/08 10:21:47;;;;;;;15.83;11.73;;;6.90;99.90;;;;;;10374780;28;20223;-80
2020/12/08 10:27:09;;;;;;;17.30;12.00;;;7.10;99.90;;;;;;10338435;28;20242;-80
2020/12/08 10:32:31;;;;;;;18.90;12.10;;;7.20;99.90;;;;;;10338380;28;20227;-80
2020/12/08 10:37:53;;;;;;;14.87;12.20;;;7.10;99.90;;;;;;10332821;28;20192;-80
2020/12/08 10:43:15;;;;;;;14.10;11.27;;;7.10;99.90;;;;;;10336272;28;20216;-80
2020/12/08 10:48:40;;;;;;;16.57;11.90;;;7.30;99.90;;;;;;10340012;28;20203;-79
2020/12/08 10:54:02;;;;;;;15.67;10.60;;;7.40;99.90;;;;;;10346978;28;20327;-80
2020/12/08 10:59:24;;;;;;;13.60;10.83;;;7.40;99.90;;;;;;10337470;28;20545;-79
2020/12/08 11:04:46;;;;;;;17.03;11.97;;;7.60;99.90;;;;;;10334002;28;20317;-79
2020/12/08 11:10:08;;;;;;;13.87;10.73;;;7.60;99.90;;;;;;10331572;28;20203;-80
2020/12/08 11:15:30;;;;;;;16.50;12.07;;;7.60;99.90;;;;;;10334512;28;20561;-79
2020/12/08 11:20:52;;;;;;;18.63;13.37;;;7.60;99.90;;;;;;10372729;28;20194;-80
2020/12/08 11:26:14;;;;;;;17.93;13.67;;;7.60;99.90;;;;;;10326975;28;20619;-79
2020/12/08 11:31:36;;;;;;;15.10;11.83;;;7.80;99.90;;;;;;10343047;28;20715;-80
2020/12/08 11:36:58;;;;;;;20.77;14.20;;;7.80;99.90;;;;;;10298734;28;20207;-80
2020/12/08 11:42:20;;;;;;;19.00;13.47;;;8.10;99.90;;;;;;10323383;28;20219;-80
2020/12/08 11:47:42;;;;;;;17.53;12.70;;;8.10;99.90;;;;;;10301048;28;20323;-80
2020/12/08 11:53:04;;;;;;;18.33;13.77;;;7.90;99.90;;;;;;10322051;28;20246;-80
2020/12/08 11:58:29;;;;;;;19.90;14.37;;;7.70;99.90;;;;;;10337820;28;20199;-80
2020/12/08 12:03:52;;;;;;;17.10;12.93;;;7.80;99.90;;;;;;10330359;28;20211;-80
2020/12/08 12:09:13;;;;;;;16.83;13.00;;;7.80;99.90;;;;;;10310324;28;20207;-80
2020/12/08 12:14:35;;;;;;;16.10;13.33;;;7.80;99.90;;;;;;10337596;28;20219;-80
2020/12/08 12:19:58;;;;;;;17.47;13.53;;;7.70;99.90;;;;;;10370181;28;20690;-83
2020/12/08 12:25:21;;;;;;;18.90;13.80;;;7.60;99.90;;;;;;10346826;28;20223;-82
2020/12/08 12:30:42;;;;;;;15.00;12.47;;;7.60;99.90;;;;;;10333870;28;20546;-81
2020/12/08 12:36:05;;;;;;;18.67;13.23;;;7.70;99.90;;;;;;10330519;28;20233;-82
2020/12/08 12:41:27;;;;;;;15.50;12.53;;;7.70;99.90;;;;;;10335459;28;20219;-81
2020/12/08 12:46:51;;;;;;;16.17;12.70;;;7.70;99.90;;;;;;10331450;28;20202;-79
2020/12/08 12:52:14;;;;;;;15.00;11.00;;;7.60;99.90;;;;;;10351267;28;20227;-86
2020/12/08 12:57:35;;;;;;;13.50;10.93;;;7.70;99.90;;;;;;10367341;28;20201;-85
2020/12/08 13:02:57;;;;;;;13.03;10.70;;;7.70;99.90;;;;;;10369827;28;20266;-85
2020/12/08 13:08:20;;;;;;;14.00;11.47;;;7.70;99.90;;;;;;10306909;28;20676;-82
2020/12/08 13:13:42;;;;;;;12.50;11.13;;;7.60;99.90;;;;;;10300297;28;20234;-85
2020/12/08 13:19:03;;;;;;;13.63;10.20;;;7.60;99.90;;;;;;10340062;28;20194;-83
2020/12/08 13:24:26;;;;;;;15.20;12.17;;;7.60;99.90;;;;;;10353976;28;20278;-84
2020/12/08 13:29:48;;;;;;;17.27;12.00;;;7.40;99.90;;;;;;10341057;28;20584;-82
2020/12/08 13:35:09;;;;;;;16.47;11.90;;;7.30;99.90;;;;;;10340341;28;20223;-79
2020/12/08 13:40:32;;;;;;;16.33;11.93;;;7.20;99.90;;;;;;10334987;28;20195;-80
2020/12/08 13:45:54;;;;;;;19.00;14.10;;;7.20;99.90;;;;;;10301606;28;20258;-80
2020/12/08 13:51:15;;;;;;;21.20;15.17;;;7.20;99.90;;;;;;10354245;28;20695;-81
2020/12/08 13:56:38;;;;;;;23.97;17.60;;;7.20;99.90;;;;;;10337414;28;20221;-80
2020/12/08 14:02:00;;;;;;;23.07;16.67;;;7.20;99.90;;;;;;10350343;28;20611;-81
2020/12/08 14:07:22;;;;;;;33.43;21.83;;;7.30;99.90;;;;;;10334782;28;20195;-80
2020/12/08 14:12:44;;;;;;;41.03;23.40;;;7.10;99.90;;;;;;10325926;28;20230;-80
2020/12/08 14:18:06;;;;;;;43.37;25.53;;;6.90;99.90;;;;;;10354306;28;20205;-80
2020/12/08 14:23:28;;;;;;;42.03;24.60;;;6.70;99.90;;;;;;10367380;28;20281;-82
2020/12/08 14:28:52;;;;;;;41.47;24.67;;;6.70;99.90;;;;;;10346392;28;20195;-83
2020/12/08 14:34:13;;;;;;;42.53;24.30;;;6.70;99.90;;;;;;10345869;28;20769;-80
2020/12/08 14:39:35;;;;;;;42.10;24.50;;;6.60;99.90;;;;;;10344229;28;20209;-81
2020/12/08 14:44:58;;;;;;;43.30;24.53;;;6.60;99.90;;;;;;10343234;28;20211;-80
2020/12/08 14:50:20;;;;;;;48.33;26.90;;;6.50;99.90;;;;;;10344759;28;20243;-79
2020/12/08 14:55:41;;;;;;;43.17;25.53;;;6.40;99.90;;;;;;10345607;28;20230;-83
2020/12/08 15:01:04;;;;;;;41.53;23.63;;;6.30;99.90;;;;;;10345214;28;20567;-83
2020/12/08 15:06:26;;;;;;;48.60;26.13;;;6.10;99.90;;;;;;10342884;28;20230;-82
2020/12/08 15:11:50;;;;;;;43.73;24.63;;;6.10;99.90;;;;;;10340325;28;20227;-80
2020/12/08 15:17:13;;;;;;;43.97;26.30;;;6.10;99.90;;;;;;10352477;28;20199;-82
2020/12/08 15:22:35;;;;;;;52.23;26.97;;;6.10;99.90;;;;;;10378874;28;20218;-81
2020/12/08 15:27:56;;;;;;;47.10;27.00;;;6.30;99.90;;;;;;10341167;28;20206;-81
2020/12/08 15:33:19;;;;;;;46.33;25.73;;;6.30;99.90;;;;;;10337961;28;20704;-81
2020/12/08 15:38:41;;;;;;;52.63;27.33;;;6.30;99.90;;;;;;10337020;28;20229;-81
2020/12/08 15:44:02;;;;;;;48.20;28.10;;;6.30;99.90;;;;;;10326758;28;20227;-81
2020/12/08 15:49:25;;;;;;;48.87;27.10;;;6.10;99.90;;;;;;10350905;28;20568;-81
2020/12/08 15:54:46;;;;;;;46.53;27.63;;;6.20;99.90;;;;;;10331140;28;20599;-80
2020/12/08 16:00:09;;;;;;;50.10;27.20;;;6.10;99.90;;;;;;10322179;28;20207;-80
2020/12/08 16:05:33;;;;;;;45.20;27.10;;;6.10;99.90;;;;;;10338474;28;20254;-81
2020/12/08 16:10:55;;;;;;;47.37;26.47;;;6.00;99.90;;;;;;10337686;28;20211;-81
2020/12/08 16:16:16;;;;;;;47.17;25.83;;;6.20;99.90;;;;;;10328209;28;20577;-81
2020/12/08 16:21:39;;;;;;;46.27;27.37;;;6.10;99.90;;;;;;10337825;28;20219;-81
2020/12/08 16:27:01;;;;;;;52.87;27.57;;;6.20;99.90;;;;;;10340802;28;20203;-80
2020/12/08 16:32:23;;;;;;;46.30;27.57;;;6.40;99.90;;;;;;10331771;28;20234;-77
2020/12/08 16:37:45;;;;;;;45.63;26.73;;;6.30;99.90;;;;;;10341988;28;20210;-79
2020/12/08 16:43:08;;;;;;;42.87;26.23;;;6.30;99.90;;;;;;10339186;28;20219;-79
2020/12/08 16:48:29;;;;;;;42.30;26.83;;;6.20;99.90;;;;;;10339853;28;20607;-79
2020/12/08 16:53:52;;;;;;;44.30;26.70;;;6.30;99.90;;;;;;10342289;28;20223;-81
2020/12/08 16:59:14;;;;;;;43.17;26.93;;;6.30;99.90;;;;;;10341443;28;20580;-80
2020/12/08 17:04:35;;;;;;;42.50;25.63;;;6.30;99.90;;;;;;10342545;28;20222;-79
2020/12/08 17:09:58;;;;;;;42.60;26.33;;;6.30;99.90;;;;;;10334668;28;20211;-80
2020/12/08 17:15:20;;;;;;;44.33;27.53;;;6.60;99.90;;;;;;10335920;28;20266;-80
2020/12/08 17:20:42;;;;;;;38.97;24.50;;;6.70;99.90;;;;;;10374276;28;20214;-85
2020/12/08 17:26:04;;;;;;;43.47;25.70;;;6.60;99.90;;;;;;10334058;28;20685;-84
2020/12/08 17:31:26;;;;;;;43.90;26.47;;;6.60;99.90;;;;;;10316197;28;20222;-78
2020/12/08 17:36:48;;;;;;;45.07;27.43;;;6.60;99.90;;;;;;10299087;28;20214;-83
2020/12/08 17:42:13;;;;;;;49.57;29.43;;;6.60;99.90;;;;;;10344463;28;20606;-85
2020/12/08 17:47:35;;;;;;;44.10;27.77;;;6.70;99.90;;;;;;10348389;28;20203;-83
2020/12/08 17:52:57;;;;;;;44.37;27.30;;;6.60;99.90;;;;;;10357746;28;20230;-80
2020/12/08 17:58:20;;;;;;;43.43;26.17;;;6.50;99.90;;;;;;10351408;28;20284;-84
2020/12/08 18:03:42;;;;;;;46.97;27.33;;;6.40;99.90;;;;;;10363203;28;20288;-81
2020/12/08 18:09:06;;;;;;;43.00;27.00;;;6.30;99.90;;;;;;10333046;28;20196;-84
2020/12/08 18:14:29;;;;;;;43.63;26.63;;;6.30;99.90;;;;;;10351195;28;20222;-85
2020/12/08 18:19:51;;;;;;;42.93;26.13;;;6.20;99.90;;;;;;10405320;28;20191;-86
2020/12/08 18:25:13;;;;;;;44.50;27.30;;;6.20;99.90;;;;;;10351887;28;20218;-85
2020/12/08 18:30:36;;;;;;;42.53;26.10;;;6.20;99.90;;;;;;10332625;28;20196;-87
2020/12/08 18:35:58;;;;;;;43.77;27.73;;;6.20;99.90;;;;;;10309575;28;20216;-82
2020/12/08 18:41:20;;;;;;;46.53;28.47;;;6.20;99.90;;;;;;10299071;28;20192;-80
2020/12/08 18:46:42;;;;;;;50.70;29.97;;;6.30;99.90;;;;;;10315297;28;20282;-81
2020/12/08 18:52:04;;;;;;;47.67;29.30;;;6.20;99.90;;;;;;10321509;28;20303;-80
2020/12/08 18:57:27;;;;;;;47.80;30.03;;;6.20;99.90;;;;;;10368241;28;20857;-80
2020/12/08 19:02:50;;;;;;;44.83;29.07;;;6.20;99.90;;;;;;10366848;28;20219;-82
2020/12/08 19:08:12;;;;;;;47.80;30.47;;;6.10;99.90;;;;;;10343434;28;20203;-84
2020/12/08 19:13:34;;;;;;;53.60;30.67;;;6.00;99.90;;;;;;10344624;28;20286;-83
2020/12/08 19:18:57;;;;;;;49.73;30.30;;;5.80;99.90;;;;;;10365224;28;20261;-82
2020/12/08 19:24:19;;;;;;;48.17;28.43;;;5.70;99.90;;;;;;10359282;28;20210;-82
2020/12/08 19:29:41;;;;;;;46.57;28.80;;;5.60;99.90;;;;;;10342363;28;20218;-80
2020/12/08 19:35:04;;;;;;;48.33;29.57;;;5.60;99.90;;;;;;10379189;28;20214;-80
2020/12/08 19:40:26;;;;;;;47.87;30.00;;;5.40;99.90;;;;;;10372574;28;20273;-81
2020/12/08 19:45:49;;;;;;;53.63;32.10;;;5.40;99.90;;;;;;10342434;28;20247;-83
2020/12/08 19:51:12;;;;;;;48.17;30.00;;;5.30;99.90;;;;;;10356084;28;20199;-81
2020/12/08 19:56:34;;;;;;;49.50;30.20;;;5.10;99.90;;;;;;10344453;28;20195;-81
2020/12/08 20:01:56;;;;;;;48.13;29.87;;;5.00;99.90;;;;;;10342506;28;20294;-81
2020/12/08 20:07:18;;;;;;;49.97;29.83;;;4.90;99.90;;;;;;10340917;28;20206;-80
2020/12/08 20:12:41;;;;;;;49.43;30.63;;;4.80;99.90;;;;;;10299216;28;20245;-79
2020/12/08 20:18:04;;;;;;;48.47;28.97;;;4.80;99.90;;;;;;10315654;28;20195;-80
2020/12/08 20:23:26;;;;;;;55.23;32.30;;;4.70;99.90;;;;;;10338318;28;20218;-80
2020/12/08 20:28:49;;;;;;;49.80;30.33;;;4.60;99.90;;;;;;10340481;28;20215;-81
2020/12/08 20:34:10;;;;;;;52.00;32.80;;;4.50;99.90;;;;;;10340320;28;20231;-80
2020/12/08 20:39:37;;;;;;;54.53;31.47;;;4.50;99.90;;;;;;10324641;28;20194;-78
2020/12/08 20:45:02;;;;;;;56.87;32.87;;;4.50;99.90;;;;;;10318739;28;20207;-78
2020/12/08 20:50:28;;;;;;;51.97;31.77;;;4.60;99.90;;;;;;10322433;28;20549;-79
2020/12/08 20:55:51;;;;;;;51.47;31.67;;;4.70;99.90;;;;;;10318508;28;20628;-78
2020/12/08 21:01:13;;;;;;;49.53;30.93;;;4.70;99.90;;;;;;10315286;28;20198;-79
2020/12/08 21:06:40;;;;;;;50.47;29.77;;;4.80;99.90;;;;;;10313085;28;20192;-78
2020/12/08 21:12:05;;;;;;;50.73;31.40;;;4.60;99.90;;;;;;10317581;28;20215;-79
2020/12/08 21:17:37;;;;;;;47.30;28.73;;;4.70;99.90;;;;;;10317875;28;20288;-78
2020/12/08 21:22:59;;;;;;;49.67;30.03;;;4.60;99.90;;;;;;10316675;28;20708;-78
2020/12/08 21:28:22;;;;;;;51.50;30.13;;;4.80;99.90;;;;;;10297334;28;20206;-80
2020/12/08 21:33:44;;;;;;;48.83;29.83;;;4.50;99.90;;;;;;10338990;28;20234;-79
2020/12/08 21:39:06;;;;;;;51.00;31.13;;;4.80;99.90;;;;;;10335660;28;20692;-79
2020/12/08 21:44:28;;;;;;;51.60;30.90;;;4.80;99.90;;;;;;10322985;28;20223;-78
2020/12/08 21:49:52;;;;;;;49.90;29.60;;;4.80;99.90;;;;;;10339034;28;20198;-78
2020/12/08 21:55:13;;;;;;;47.73;29.30;;;4.80;99.90;;;;;;10331903;28;20727;-78
2020/12/08 22:00:36;;;;;;;47.97;28.47;;;4.60;99.90;;;;;;10338650;28;20578;-79
2020/12/08 22:06:00;;;;;;;51.20;29.93;;;4.60;99.90;;;;;;10337395;28;20685;-78
2020/12/08 22:11:21;;;;;;;46.03;28.27;;;4.70;99.90;;;;;;10338068;28;20199;-78
2020/12/08 22:16:44;;;;;;;47.90;28.73;;;4.80;99.90;;;;;;10341077;28;20186;-78
2020/12/08 22:22:08;;;;;;;46.27;28.10;;;4.40;99.90;;;;;;10377732;28;20584;-78
2020/12/08 22:27:30;;;;;;;50.53;31.57;;;4.50;99.90;;;;;;10376501;28;20194;-78
2020/12/08 22:32:52;;;;;;;45.73;26.93;;;4.70;99.90;;;;;;10350793;28;20227;-78
2020/12/08 22:38:14;;;;;;;51.00;30.40;;;4.70;99.90;;;;;;10336730;28;20191;-78
2020/12/08 22:43:35;;;;;;;49.37;29.30;;;4.80;99.90;;;;;;10337414;28;20215;-78
2020/12/08 22:48:58;;;;;;;55.17;31.83;;;4.70;99.90;;;;;;10339757;28;20198;-78
2020/12/08 22:54:20;;;;;;;51.17;31.37;;;4.50;99.90;;;;;;10306009;28;20228;-78
2020/12/08 22:59:41;;;;;;;50.80;31.03;;;4.70;99.90;;;;;;10321546;28;20200;-78
2020/12/08 23:05:04;;;;;;;51.60;31.07;;;4.60;99.90;;;;;;10334432;28;20218;-79
2020/12/08 23:10:26;;;;;;;55.67;33.60;;;4.40;99.90;;;;;;10335266;28;20195;-79
2020/12/08 23:15:47;;;;;;;51.23;31.70;;;4.40;99.90;;;;;;10335254;28;20234;-78
2020/12/08 23:21:10;;;;;;;53.80;31.37;;;4.20;99.90;;;;;;10373226;28;20205;-79
2020/12/08 23:26:32;;;;;;;55.83;32.07;;;4.10;99.90;;;;;;10374156;28;20210;-78
2020/12/08 23:31:53;;;;;;;55.13;30.97;;;4.20;99.90;;;;;;10374021;28;20224;-78
2020/12/08 23:37:16;;;;;;;58.67;33.90;;;4.40;99.90;;;;;;10373688;28;20200;-79
2020/12/08 23:42:38;;;;;;;62.17;33.37;;;4.20;99.90;;;;;;10375080;28;20221;-78
2020/12/08 23:47:59;;;;;;;57.57;31.70;;;4.10;99.90;;;;;;10372827;28;20575;-78
2020/12/08 23:53:22;;;;;;;59.80;32.87;;;4.20;99.90;;;;;;10346810;28;20298;-79
2020/12/08 23:58:43;;;;;;;54.23;30.53;;;4.10;99.90;;;;;;10334187;28;20199;-78
